Time;durP1;ratioP1;P1;durP2;ratioP2;P2;SDS_P1;SDS_P2;PMS_P1;PMS_P2;Temp;Humidity;BMP_temperature;BMP_pressure;BME280_temperature;BME280_humidity;BME280_pressure;Samples;Min_cycle;Max_cycle;Signal;HPM_P1;HPM_P2
2021/05/29 00:00:54;;;;;;;;;;;18.10;71.90;;;;;;5068779;28;19908;-81
2021/05/29 00:03:24;;;;;;;;;;;18.00;72.60;;;;;;5068814;28;20564;-82
2021/05/29 00:05:50;;;;;;;;;;;18.10;72.40;;;;;;5067802;28;19958;-82
2021/05/29 00:08:15;;;;;;;;;;;18.10;72.30;;;;;;5068915;28;19908;-82
2021/05/29 00:10:43;;;;;;;;;;;18.20;72.10;;;;;;5069035;28;20428;-82
2021/05/29 00:13:11;;;;;;;;;;;18.10;73.10;;;;;;5069263;28;19908;-82
2021/05/29 00:15:37;;;;;;;;;;;18.10;72.80;;;;;;5068972;28;20482;-82
2021/05/29 00:18:03;;;;;;;;;;;18.20;73.10;;;;;;5068776;28;19904;-82
2021/05/29 00:20:28;;;;;;;;;;;18.10;72.90;;;;;;5068795;28;19920;-82
2021/05/29 00:22:54;;;;;;;;;;;18.20;72.40;;;;;;5068499;28;19924;-81
2021/05/29 00:25:19;;;;;;;;;;;18.00;73.40;;;;;;5069116;28;19905;-81
2021/05/29 00:27:45;;;;;;;;;;;18.10;73.20;;;;;;5067786;28;19904;-82
2021/05/29 00:30:11;;;;;;;;;;;18.10;73.60;;;;;;5068664;28;19905;-82
2021/05/29 00:32:40;;;;;;;;;;;18.10;73.70;;;;;;5061876;28;19984;-82
2021/05/29 00:35:07;;;;;;;;;;;17.90;74.10;;;;;;5068699;28;19934;-82
2021/05/29 00:37:32;;;;;;;;;;;18.00;74.10;;;;;;5068500;28;19909;-82
2021/05/29 00:39:58;;;;;;;;;;;18.10;73.60;;;;;;5071916;28;19908;-82
2021/05/29 00:42:23;;;;;;;;;;;18.10;73.50;;;;;;5078366;28;19915;-82
2021/05/29 00:44:51;;;;;;;;;;;18.10;74.40;;;;;;5092450;28;19955;-82
2021/05/29 00:47:20;;;;;;;;;;;17.90;74.90;;;;;;5092612;28;19904;-82
2021/05/29 00:49:45;;;;;;;;;;;17.70;75.60;;;;;;5092348;28;19911;-82
2021/05/29 00:52:13;;;;;;;;;;;17.70;76.00;;;;;;5092226;28;19927;-81
2021/05/29 00:54:39;;;;;;;;;;;17.60;76.60;;;;;;5092549;28;20452;-82
2021/05/29 00:57:04;;;;;;;;;;;17.70;76.40;;;;;;5092206;28;19908;-82
2021/05/29 00:59:31;;;;;;;;;;;17.70;76.50;;;;;;5092312;28;19929;-82
2021/05/29 01:01:57;;;;;;;;;;;17.70;76.80;;;;;;5092001;28;19907;-82
2021/05/29 01:04:22;;;;;;;;;;;17.70;77.30;;;;;;5091970;28;20287;-82
2021/05/29 01:06:48;;;;;;;;;;;17.50;76.70;;;;;;5087466;28;19912;-82
2021/05/29 01:09:14;;;;;;;;;;;17.50;77.80;;;;;;5071687;28;20368;-81
2021/05/29 01:11:40;;;;;;;;;;;17.40;77.90;;;;;;5071699;28;19905;-81
2021/05/29 01:14:05;;;;;;;;;;;17.40;79.50;;;;;;5071567;28;19911;-81
2021/05/29 01:19:03;;;;;;;;;;;17.20;80.00;;;;;;5071524;28;19916;-82
2021/05/29 01:21:28;;;;;;;;;;;17.20;80.20;;;;;;5071847;28;19912;-82
2021/05/29 01:23:54;;;;;;;;;;;17.10;80.60;;;;;;5071908;28;19912;-82
2021/05/29 01:26:20;;;;;;;;;;;17.00;81.40;;;;;;5071618;28;19912;-82
2021/05/29 01:28:45;;;;;;;;;;;17.10;81.00;;;;;;5071522;28;19904;-82
2021/05/29 01:31:13;;;;;;;;;;;17.20;81.00;;;;;;5071550;28;19908;-82
2021/05/29 01:33:38;;;;;;;;;;;17.20;80.80;;;;;;5071641;28;19912;-82
2021/05/29 01:36:08;;;;;;;;;;;17.10;81.60;;;;;;5071030;28;19908;-82
2021/05/29 01:38:35;;;;;;;;;;;17.00;82.20;;;;;;5071409;28;20295;-81
2021/05/29 01:41:01;;;;;;;;;;;16.80;83.40;;;;;;5071398;28;19904;-81
2021/05/29 01:43:27;;;;;;;;;;;16.80;84.00;;;;;;5070565;28;19908;-81
2021/05/29 01:45:53;;;;;;;;;;;16.80;84.30;;;;;;5070036;28;20349;-82
2021/05/29 01:48:20;;;;;;;;;;;16.80;83.90;;;;;;5070839;28;19969;-81
2021/05/29 01:50:46;;;;;;;;;;;16.90;83.50;;;;;;5070020;28;19908;-81
2021/05/29 01:53:22;;;;;;;;;;;16.90;83.50;;;;;;5070634;28;19955;-81
2021/05/29 01:55:48;;;;;;;;;;;16.90;84.20;;;;;;5069701;28;19912;-84
2021/05/29 01:58:15;;;;;;;;;;;16.90;83.90;;;;;;5070762;28;19958;-83
2021/05/29 02:00:40;;;;;;;;;;;16.90;83.90;;;;;;5071050;28;20447;-83
2021/05/29 02:03:06;;;;;;;;;;;16.80;84.50;;;;;;5070522;28;19952;-82
2021/05/29 02:05:33;;;;;;;;;;;16.80;84.60;;;;;;5070440;28;19991;-81
2021/05/29 02:08:08;;;;;;;;;;;16.80;85.10;;;;;;5057191;28;20068;-82
2021/05/29 02:10:34;;;;;;;;;;;16.70;85.30;;;;;;5046163;28;20741;-82
2021/05/29 02:13:01;;;;;;;;;;;16.80;85.10;;;;;;5050460;28;19962;-82
2021/05/29 02:15:28;;;;;;;;;;;16.70;85.20;;;;;;5048839;28;19909;-81
2021/05/29 02:17:55;;;;;;;;;;;16.60;86.10;;;;;;5050764;28;20372;-82
2021/05/29 02:20:41;;;;;;;;;;;16.60;85.90;;;;;;5050180;28;19920;-81
2021/05/29 02:23:08;;;;;;;;;;;16.50;87.00;;;;;;5079328;28;19916;-82
2021/05/29 02:25:33;;;;;;;;;;;16.50;87.80;;;;;;5090650;28;20371;-82
2021/05/29 02:27:59;;;;;;;;;;;16.40;87.50;;;;;;5090720;28;19908;-82
2021/05/29 02:30:25;;;;;;;;;;;16.40;87.80;;;;;;5090461;28;19904;-82
2021/05/29 02:32:51;;;;;;;;;;;16.40;88.20;;;;;;5090493;28;19982;-82
2021/05/29 02:35:17;;;;;;;;;;;16.50;87.80;;;;;;5090454;28;19972;-81
2021/05/29 02:37:43;;;;;;;;;;;16.40;88.50;;;;;;5090068;28;19904;-82
2021/05/29 02:40:09;;;;;;;;;;;16.40;89.60;;;;;;5090332;28;19915;-82
2021/05/29 02:42:35;;;;;;;;;;;16.30;90.00;;;;;;5074115;28;19905;-82
2021/05/29 02:45:01;;;;;;;;;;;16.20;89.80;;;;;;5069971;28;19931;-82
2021/05/29 02:47:26;;;;;;;;;;;16.30;90.10;;;;;;5069965;28;19954;-81
2021/05/29 02:49:52;;;;;;;;;;;16.30;90.40;;;;;;5069797;28;20401;-82
2021/05/29 02:52:17;;;;;;;;;;;16.20;90.20;;;;;;5069925;28;19920;-82
2021/05/29 02:54:43;;;;;;;;;;;16.20;90.50;;;;;;5068268;28;19958;-82
2021/05/29 02:57:13;;;;;;;;;;;16.20;90.30;;;;;;5068307;28;20051;-82
2021/05/29 02:59:39;;;;;;;;;;;16.10;91.00;;;;;;5069905;28;19936;-82
2021/05/29 03:02:05;;;;;;;;;;;16.00;90.90;;;;;;5069513;28;19908;-82
2021/05/29 03:04:31;;;;;;;;;;;15.90;91.40;;;;;;5068357;28;19908;-82
2021/05/29 03:06:57;;;;;;;;;;;15.90;91.60;;;;;;5069481;28;19915;-82
2021/05/29 03:09:22;;;;;;;;;;;15.90;92.10;;;;;;5069767;28;19927;-82
2021/05/29 03:11:48;;;;;;;;;;;15.80;92.30;;;;;;5069503;28;19935;-82
2021/05/29 03:14:14;;;;;;;;;;;15.70;98.30;;;;;;5069581;28;19908;-82
2021/05/29 03:16:39;;;;;;;;;;;15.70;92.70;;;;;;5069644;28;19951;-82
2021/05/29 03:19:05;;;;;;;;;;;15.70;92.70;;;;;;5068912;28;19943;-82
2021/05/29 03:21:31;;;;;;;;;;;15.60;93.20;;;;;;5069132;28;20638;-82
2021/05/29 03:23:56;;;;;;;;;;;15.60;93.40;;;;;;5069138;28;19969;-81
2021/05/29 03:26:23;;;;;;;;;;;15.50;94.10;;;;;;5069500;28;19986;-82
2021/05/29 03:28:49;;;;;;;;;;;15.50;94.10;;;;;;5069145;28;19916;-82
2021/05/29 03:31:15;;;;;;;;;;;15.40;94.70;;;;;;5067483;28;20003;-82
2021/05/29 03:33:40;;;;;;;;;;;15.50;94.60;;;;;;5069397;28;19999;-82
2021/05/29 03:36:06;;;;;;;;;;;15.30;95.00;;;;;;5069169;28;19911;-82
2021/05/29 03:38:31;;;;;;;;;;;15.30;95.30;;;;;;5069377;28;19919;-81
2021/05/29 03:40:57;;;;;;;;;;;15.10;95.80;;;;;;5071933;28;19904;-82
2021/05/29 03:43:23;;;;;;;;;;;15.10;96.10;;;;;;5087887;28;19942;-82
2021/05/29 03:45:48;;;;;;;;;;;15.10;96.30;;;;;;5089878;28;19915;-82
2021/05/29 03:48:14;;;;;;;;;;;15.00;96.70;;;;;;5089375;28;19915;-82
2021/05/29 03:50:39;;;;;;;;;;;15.00;97.10;;;;;;5089887;28;20002;-82
2021/05/29 03:53:06;;;;;;;;;;;14.90;97.20;;;;;;5089399;28;19950;-82
2021/05/29 03:55:32;;;;;;;;;;;15.10;97.90;;;;;;5089621;28;19905;-82
2021/05/29 03:57:59;;;;;;;;;;;15.00;97.50;;;;;;5089359;28;19919;-82
2021/05/29 04:00:24;;;;;;;;;;;15.00;97.50;;;;;;5089282;28;19998;-82
2021/05/29 04:02:50;;;;;;;;;;;15.00;97.80;;;;;;5089461;28;20411;-82
2021/05/29 04:05:16;;;;;;;;;;;15.10;98.10;;;;;;5087726;28;20299;-81
2021/05/29 04:07:42;;;;;;;;;;;15.00;97.80;;;;;;5077392;28;19917;-81
2021/05/29 04:10:09;;;;;;;;;;;15.00;98.40;;;;;;5067704;28;19973;-82
2021/05/29 04:12:34;;;;;;;;;;;15.00;98.40;;;;;;5068976;28;19908;-82
2021/05/29 04:15:00;;;;;;;;;;;14.90;98.40;;;;;;5072830;28;19908;-82
2021/05/29 04:17:26;;;;;;;;;;;15.00;98.60;;;;;;5072763;28;19949;-82
2021/05/29 04:19:52;;;;;;;;;;;14.90;99.10;;;;;;5072755;28;19921;-82
2021/05/29 04:22:18;;;;;;;;;;;14.90;98.70;;;;;;5071207;28;19912;-81
2021/05/29 04:24:44;;;;;;;;;;;14.90;99.40;;;;;;5071339;28;20531;-82
2021/05/29 04:27:10;;;;;;;;;;;14.90;99.40;;;;;;5072924;28;19939;-82
2021/05/29 04:29:36;;;;;;;;;;;14.90;99.90;;;;;;5072410;28;20296;-81
2021/05/29 04:32:01;;;;;;;;;;;14.90;99.90;;;;;;5072983;28;19916;-82
2021/05/29 04:34:27;;;;;;;;;;;14.90;99.70;;;;;;5072715;28;19911;-83
2021/05/29 04:36:53;;;;;;;;;;;14.90;99.80;;;;;;5072758;28;19995;-83
2021/05/29 04:39:18;;;;;;;;;;;14.90;99.80;;;;;;5072958;28;19913;-82
2021/05/29 04:41:44;;;;;;;;;;;14.90;99.90;;;;;;5072716;28;20003;-83
2021/05/29 04:44:09;;;;;;;;;;;14.80;99.90;;;;;;5072589;28;19908;-82
2021/05/29 04:46:39;;;;;;;;;;;14.80;99.90;;;;;;5070961;28;19908;-83
2021/05/29 04:49:05;;;;;;;;;;;14.90;99.90;;;;;;5072464;28;19908;-82
2021/05/29 04:51:31;;;;;;;;;;;15.00;99.90;;;;;;5072170;28;19904;-82
2021/05/29 04:53:56;;;;;;;;;;;15.00;99.90;;;;;;5072000;28;20437;-83
2021/05/29 04:56:22;;;;;;;;;;;15.10;99.90;;;;;;5071842;28;19908;-82
2021/05/29 04:58:48;;;;;;;;;;;15.10;99.90;;;;;;5071810;28;19951;-82
2021/05/29 05:01:13;;;;;;;;;;;15.20;99.90;;;;;;5072209;28;19911;-83
2021/05/29 05:03:39;;;;;;;;;;;15.30;99.90;;;;;;5071625;28;19912;-83
2021/05/29 05:06:05;;;;;;;;;;;15.30;99.90;;;;;;5071795;28;20376;-82
2021/05/29 05:08:31;;;;;;;;;;;15.50;99.80;;;;;;5053821;28;19909;-82
2021/05/29 05:10:57;;;;;;;;;;;15.70;99.90;;;;;;5051800;28;20383;-82
2021/05/29 05:13:23;;;;;;;;;;;15.90;99.40;;;;;;5051988;28;19905;-81
2021/05/29 05:15:49;;;;;;;;;;;15.70;99.70;;;;;;5055999;28;19959;-84
2021/05/29 05:18:15;;;;;;;;;;;15.30;99.90;;;;;;5091739;28;19904;-83
2021/05/29 05:20:42;;;;;;;;;;;15.20;99.90;;;;;;5092331;28;19918;-83
2021/05/29 05:23:08;;;;;;;;;;;15.20;99.90;;;;;;5090653;28;20375;-83
2021/05/29 05:25:33;;;;;;;;;;;15.20;99.90;;;;;;5091942;28;19908;-82
2021/05/29 05:27:59;;;;;;;;;;;15.50;99.90;;;;;;5090240;28;19908;-82
2021/05/29 05:30:25;;;;;;;;;;;15.50;99.90;;;;;;5090836;28;20330;-82
2021/05/29 05:32:51;;;;;;;;;;;15.70;99.90;;;;;;5090560;28;20508;-82
2021/05/29 05:35:19;;;;;;;;;;;15.80;99.90;;;;;;5092186;28;19908;-83
2021/05/29 05:37:45;;;;;;;;;;;15.90;99.90;;;;;;5090754;28;19915;-82
2021/05/29 05:40:11;;;;;;;;;;;16.40;99.80;;;;;;5092050;28;19904;-82
2021/05/29 05:42:37;;;;;;;;;;;16.90;99.30;;;;;;5075613;28;19915;-82
2021/05/29 05:45:03;;;;;;;;;;;17.70;98.00;;;;;;5071633;28;19920;-82
2021/05/29 05:47:29;;;;;;;;;;;18.10;96.30;;;;;;5071485;28;19916;-82
2021/05/29 05:49:55;;;;;;;;;;;19.10;95.40;;;;;;5071714;28;19904;-83
2021/05/29 05:52:20;;;;;;;;;;;20.40;95.00;;;;;;5071397;28;20295;-83
2021/05/29 05:54:46;;;;;;;;;;;21.40;92.50;;;;;;5069881;28;20265;-83
2021/05/29 05:57:13;;;;;;;;;;;21.30;91.10;;;;;;5070970;28;19918;-83
2021/05/29 05:59:39;;;;;;;;;;;20.60;91.60;;;;;;5068462;28;19916;-83
2021/05/29 06:02:07;;;;;;;;;;;20.60;92.30;;;;;;5070812;28;19908;-83
2021/05/29 06:04:33;;;;;;;;;;;21.70;90.30;;;;;;5061176;28;19923;-82
2021/05/29 06:06:58;;;;;;;;;;;21.20;90.60;;;;;;5078146;28;20350;-83
2021/05/29 06:09:24;;;;;;;;;;;20.00;90.60;;;;;;5069176;28;19911;-83
2021/05/29 06:11:49;;;;;;;;;;;19.20;91.60;;;;;;5084947;28;19954;-84
2021/05/29 06:19:45;;;;;;;;;;;19.20;92.90;;;;;;5070239;28;19965;-82
2021/05/29 06:22:11;;;;;;;;;;;18.90;93.00;;;;;;5070781;28;19911;-83
2021/05/29 06:24:37;;;;;;;;;;;18.90;92.50;;;;;;5077197;28;19942;-82
2021/05/29 06:27:03;;;;;;;;;;;19.00;92.20;;;;;;5085245;28;19912;-84
2021/05/29 06:29:29;;;;;;;;;;;19.60;92.80;;;;;;5090443;28;20656;-83
2021/05/29 06:31:54;;;;;;;;;;;20.50;91.00;;;;;;5091046;28;19908;-82
2021/05/29 06:34:21;;;;;;;;;;;20.00;90.60;;;;;;5076699;28;19919;-84
2021/05/29 06:36:47;;;;;;;;;;;20.10;91.10;;;;;;5061257;28;20042;-84
2021/05/29 06:39:13;;;;;;;;;;;20.40;90.40;;;;;;5050471;28;19995;-84
2021/05/29 06:41:41;;;;;;;;;;;21.10;90.00;;;;;;5056706;28;19912;-84
2021/05/29 06:44:10;;;;;;;;;;;21.60;87.70;;;;;;5070308;28;19915;-84
2021/05/29 06:46:35;;;;;;;;;;;20.80;86.60;;;;;;5069337;28;19911;-84
2021/05/29 06:49:03;;;;;;;;;;;20.70;88.40;;;;;;5076004;28;19904;-84
2021/05/29 06:54:34;;;;;;;;;;;21.40;84.90;;;;;;5070469;28;19907;-84
2021/05/29 06:59:44;;;;;;;;;;;21.70;86.10;;;;;;5091079;28;19919;-84
2021/05/29 07:02:16;;;;;;;;;;;21.70;86.90;;;;;;5080256;28;20283;-84
2021/05/29 07:04:42;;;;;;;;;;;21.40;85.00;;;;;;5057559;28;20043;-84
2021/05/29 07:07:07;;;;;;;;;;;21.10;85.70;;;;;;5062313;28;20416;-84
2021/05/29 07:09:33;;;;;;;;;;;20.80;88.20;;;;;;5058109;28;19907;-84
2021/05/29 07:11:59;;;;;;;;;;;22.50;86.20;;;;;;5056082;28;19905;-84
2021/05/29 07:14:24;;;;;;;;;;;24.30;74.10;;;;;;5066513;28;19904;-84
2021/05/29 07:16:54;;;;;;;;;;;22.80;75.50;;;;;;5058771;28;19926;-84
2021/05/29 07:19:20;;;;;;;;;;;24.90;73.50;;;;;;5053720;28;19916;-84
2021/05/29 07:21:47;;;;;;;;;;;27.60;70.80;;;;;;5056860;28;19976;-84
2021/05/29 07:24:13;;;;;;;;;;;27.80;66.90;;;;;;5060826;28;20364;-84
2021/05/29 07:26:39;;;;;;;;;;;28.50;64.90;;;;;;5061152;28;19967;-84
2021/05/29 07:29:05;;;;;;;;;;;28.60;65.30;;;;;;5061597;28;19939;-86
2021/05/29 07:31:31;;;;;;;;;;;29.70;57.00;;;;;;5062888;28;19904;-85
2021/05/29 07:33:57;;;;;;;;;;;29.60;69.90;;;;;;5054105;28;19919;-85
2021/05/29 07:36:23;;;;;;;;;;;28.20;53.10;;;;;;5067934;28;19995;-85
2021/05/29 07:38:52;;;;;;;;;;;29.00;54.30;;;;;;5054800;28;19904;-85
2021/05/29 07:41:17;;;;;;;;;;;29.00;53.00;;;;;;5055255;28;20685;-85
2021/05/29 07:43:43;;;;;;;;;;;30.20;49.50;;;;;;5052283;28;20003;-85
2021/05/29 07:46:09;;;;;;;;;;;30.00;54.00;;;;;;5064785;28;19912;-84
2021/05/29 07:48:37;;;;;;;;;;;30.50;50.50;;;;;;5059007;28;19913;-85
2021/05/29 07:51:04;;;;;;;;;;;30.30;46.10;;;;;;5053996;28;19913;-85
2021/05/29 07:53:39;;;;;;;;;;;31.40;44.60;;;;;;5048841;28;19909;-85
2021/05/29 07:56:09;;;;;;;;;;;29.80;47.80;;;;;;5064443;28;19908;-84
2021/05/29 07:58:35;;;;;;;;;;;30.20;48.90;;;;;;5049130;28;19909;-85
2021/05/29 08:01:01;;;;;;;;;;;31.10;44.40;;;;;;5049768;28;19905;-85
2021/05/29 08:03:27;;;;;;;;;;;30.60;41.70;;;;;;5049232;28;19915;-85
2021/05/29 08:05:54;;;;;;;;;;;30.70;48.60;;;;;;5065005;28;19915;-85
2021/05/29 08:08:20;;;;;;;;;;;30.90;41.90;;;;;;5066116;28;19947;-85
2021/05/29 08:10:48;;;;;;;;;;;29.70;41.60;;;;;;5069453;28;20384;-86
2021/05/29 08:13:14;;;;;;;;;;;32.40;43.20;;;;;;5069793;28;19911;-85
2021/05/29 08:15:39;;;;;;;;;;;31.00;45.60;;;;;;5068165;28;19908;-85
2021/05/29 08:18:06;;;;;;;;;;;31.80;43.10;;;;;;5083023;28;19943;-86
2021/05/29 08:20:32;;;;;;;;;;;32.30;41.60;;;;;;5088388;28;19930;-85
2021/05/29 08:22:58;;;;;;;;;;;34.50;34.20;;;;;;5089750;28;20686;-86
2021/05/29 08:25:23;;;;;;;;;;;33.70;33.20;;;;;;5090159;28;19904;-86
2021/05/29 08:27:49;;;;;;;;;;;36.30;26.70;;;;;;5089432;28;19953;-85
2021/05/29 08:30:18;;;;;;;;;;;36.90;21.90;;;;;;5089992;28;19943;-86
2021/05/29 08:32:43;;;;;;;;;;;37.20;20.40;;;;;;5088318;28;19947;-85
2021/05/29 08:35:09;;;;;;;;;;;36.50;19.20;;;;;;5088435;28;19953;-86
2021/05/29 08:37:35;;;;;;;;;;;38.50;18.30;;;;;;5089240;28;19998;-86
2021/05/29 08:40:01;;;;;;;;;;;37.00;18.30;;;;;;5089523;28;19915;-85
2021/05/29 08:42:26;;;;;;;;;;;37.00;18.00;;;;;;5075064;28;19904;-85
2021/05/29 08:44:58;;;;;;;;;;;35.70;24.00;;;;;;5069108;28;19919;-85
2021/05/29 08:47:24;;;;;;;;;;;35.60;24.70;;;;;;5067817;28;20122;-85
2021/05/29 08:49:49;;;;;;;;;;;34.50;26.40;;;;;;5069278;28;19991;-84
2021/05/29 08:52:15;;;;;;;;;;;37.50;17.60;;;;;;5069307;28;20473;-85
2021/05/29 08:54:42;;;;;;;;;;;36.90;17.20;;;;;;5069452;28;20086;-84
2021/05/29 08:57:08;;;;;;;;;;;39.50;12.70;;;;;;5069470;28;19978;-85
2021/05/29 08:59:33;;;;;;;;;;;38.10;18.70;;;;;;5070574;28;20435;-85
2021/05/29 09:02:03;;;;;;;;;;;36.00;21.40;;;;;;5072775;28;20380;-85
2021/05/29 09:04:31;;;;;;;;;;;36.80;17.40;;;;;;5071466;28;19931;-85
2021/05/29 09:06:58;;;;;;;;;;;38.90;10.00;;;;;;5051314;28;19919;-85
2021/05/29 09:09:24;;;;;;;;;;;39.50;8.50;;;;;;5068187;28;19908;-84
2021/05/29 09:11:52;;;;;;;;;;;40.80;5.60;;;;;;5052731;28;19904;-84
2021/05/29 09:14:20;;;;;;;;;;;39.60;10.60;;;;;;5052700;28;20327;-85
2021/05/29 09:17:05;;;;;;;;;;;39.60;6.10;;;;;;5052686;28;19955;-85
2021/05/29 09:19:49;;;;;;;;;;;41.00;14.10;;;;;;5052411;28;19916;-85
2021/05/29 09:22:16;;;;;;;;;;;38.70;3.50;;;;;;5054826;28;19912;-85
2021/05/29 09:24:54;;;;;;;;;;;39.00;6.50;;;;;;5081632;28;19912;-85
2021/05/29 09:27:20;;;;;;;;;;;38.10;11.70;;;;;;5072795;28;20459;-84
2021/05/29 09:29:45;;;;;;;;;;;39.20;8.00;;;;;;5071322;28;19915;-85
2021/05/29 09:32:11;;;;;;;;;;;39.20;7.70;;;;;;5078037;28;19999;-84
2021/05/29 09:34:47;;;;;;;;;;;37.90;5.90;;;;;;5063052;28;19913;-84
2021/05/29 09:37:15;;;;;;;;;;;38.60;2.60;;;;;;5064155;28;20005;-85
2021/05/29 09:39:43;;;;;;;;;;;38.30;9.30;;;;;;5064390;28;19927;-84
2021/05/29 09:42:10;;;;;;;;;;;36.70;8.90;;;;;;5077443;28;20011;-84
2021/05/29 09:44:36;;;;;;;;;;;38.40;4.40;;;;;;5062480;28;19922;-84
2021/05/29 09:47:04;;;;;;;;;;;40.30;3.40;;;;;;5064684;28;19917;-84
2021/05/29 09:49:49;;;;;;;;;;;39.10;1.60;;;;;;5063092;28;19992;-84
2021/05/29 09:52:28;;;;;;;;;;;38.80;2.50;;;;;;5060325;28;19966;-85
2021/05/29 09:55:16;;;;;;;;;;;37.80;1.00;;;;;;5072084;28;19916;-84
2021/05/29 09:57:52;;;;;;;;;;;37.90;7.50;;;;;;5063432;28;19920;-84
2021/05/29 10:00:50;;;;;;;;;;;39.00;3.00;;;;;;5073476;28;20265;-86
2021/05/29 10:03:17;;;;;;;;;;;37.20;10.20;;;;;;5077567;28;19951;-83
2021/05/29 10:05:48;;;;;;;;;;;38.90;6.60;;;;;;5082357;28;19954;-84
2021/05/29 10:08:15;;;;;;;;;;;37.40;8.90;;;;;;5079677;28;19911;-84
2021/05/29 10:10:41;;;;;;;;;;;35.60;4.70;;;;;;5069955;28;19916;-84
2021/05/29 10:13:11;;;;;;;;;;;36.60;3.30;;;;;;5075495;28;19919;-84
2021/05/29 10:15:37;;;;;;;;;;;35.80;4.60;;;;;;5076201;28;19908;-84
2021/05/29 10:18:06;;;;;;;;;;;33.90;8.70;;;;;;5075243;28;19953;-85
2021/05/29 10:20:32;;;;;;;;;;;34.80;8.40;;;;;;5084197;28;19915;-84
2021/05/29 10:22:59;;;;;;;;;;;35.90;3.90;;;;;;5078754;28;19908;-84
2021/05/29 10:25:25;;;;;;;;;;;35.10;7.80;;;;;;5079612;28;19912;-84
2021/05/29 10:27:52;;;;;;;;;;;33.70;13.60;;;;;;5079110;28;20303;-83
2021/05/29 10:30:23;;;;;;;;;;;34.80;10.20;;;;;;5074962;28;19908;-83
2021/05/29 10:33:07;;;;;;;;;;;34.90;8.60;;;;;;5073470;28;20326;-83
2021/05/29 10:35:38;;;;;;;;;;;36.90;9.50;;;;;;5081548;28;20377;-83
2021/05/29 10:38:08;;;;;;;;;;;35.40;9.00;;;;;;5075686;28;19916;-83
2021/05/29 10:40:38;;;;;;;;;;;37.20;9.40;;;;;;5066708;28;19919;-83
2021/05/29 10:43:10;;;;;;;;;;;36.30;10.00;;;;;;5064082;28;19940;-83
2021/05/29 10:45:54;;;;;;;;;;;34.20;13.80;;;;;;5063246;28;19999;-82
2021/05/29 10:48:24;;;;;;;;;;;34.50;8.90;;;;;;5059846;28;19995;-82
2021/05/29 10:51:00;;;;;;;;;;;33.80;9.70;;;;;;5064103;28;19920;-82
2021/05/29 10:53:47;;;;;;;;;;;34.60;9.30;;;;;;5068090;28;20511;-82
2021/05/29 10:56:16;;;;;;;;;;;34.00;7.40;;;;;;5058679;28;19948;-83
2021/05/29 10:58:54;;;;;;;;;;;34.20;10.30;;;;;;5062113;28;19963;-83
2021/05/29 11:04:22;;;;;;;;;;;33.50;14.60;;;;;;5071180;28;20307;-82
2021/05/29 11:06:51;;;;;;;;;;;33.30;16.50;;;;;;5074695;28;20446;-82
2021/05/29 11:09:37;;;;;;;;;;;33.70;17.10;;;;;;5051962;28;20415;-82
2021/05/29 11:12:08;;;;;;;;;;;34.90;12.90;;;;;;5072630;28;19951;-82
2021/05/29 11:14:55;;;;;;;;;;;32.50;15.70;;;;;;5055724;28;19956;-82
2021/05/29 11:17:22;;;;;;;;;;;34.70;13.70;;;;;;5062199;28;19916;-82
2021/05/29 11:20:22;;;;;;;0.20;0.20;;;36.50;1.00;;;;;;5062360;28;20432;-81
2021/05/29 11:22:57;;;;;;;0.20;0.20;;;34.80;13.30;;;;;;5057496;28;20025;-81
2021/05/29 11:25:26;;;;;;;0.30;0.10;;;32.60;17.60;;;;;;5062610;28;20029;-82
2021/05/29 11:27:52;;;;;;;0.50;0.50;;;31.80;17.30;;;;;;5061284;28;20020;-81
2021/05/29 11:30:33;;;;;;;0.17;0.13;;;30.10;18.30;;;;;;5047123;28;20066;-82
2021/05/29 11:33:12;;;;;;;0.35;0.35;;;27.80;22.90;;;;;;5068105;28;20393;-82
2021/05/29 11:35:46;;;;;;;0.20;0.20;;;27.30;24.10;;;;;;5038540;28;20024;-82
2021/05/29 11:38:25;;;;;;;0.20;0.20;;;27.30;22.70;;;;;;5053449;28;20284;-83
2021/05/29 11:40:53;;;;;;;1.88;0.57;;;28.20;20.70;;;;;;5028893;28;20081;-83
2021/05/29 11:43:49;;;;;;;0.00;0.00;;;27.30;21.40;;;;;;5035376;28;20017;-82
2021/05/29 11:46:18;;;;;;;0.13;0.05;;;27.50;22.30;;;;;;5032636;28;20067;-82
2021/05/29 11:49:00;;;;;;;0.30;0.25;;;27.90;21.40;;;;;;5031810;28;20030;-82
2021/05/29 11:51:32;;;;;;;0.10;0.10;;;27.60;22.90;;;;;;5039213;28;20044;-83
2021/05/29 11:54:20;;;;;;;0.20;0.20;;;28.00;23.60;;;;;;5036731;28;20041;-83
2021/05/29 11:56:50;;;;;;;0.30;0.20;;;27.90;21.20;;;;;;5036032;28;20043;-82
2021/05/29 11:59:19;;;;;;;0.00;0.00;;;27.40;22.30;;;;;;5033263;28;20021;-83
2021/05/29 12:01:53;;;;;;;0.15;0.15;;;27.90;23.00;;;;;;5037812;28;20070;-82
2021/05/29 12:04:22;;;;;;;0.20;0.20;;;27.50;22.70;;;;;;5033606;28;20557;-83
2021/05/29 12:07:02;;;;;;;0.22;0.10;;;27.70;22.50;;;;;;5037174;28;20071;-83
2021/05/29 12:09:41;;;;;;;0.85;0.60;;;28.10;24.10;;;;;;5039723;28;20083;-83
2021/05/29 12:12:25;;;;;;;0.30;0.22;;;27.90;23.60;;;;;;5040906;28;20049;-82
2021/05/29 12:15:02;;;;;;;0.08;0.00;;;27.70;22.30;;;;;;5039379;28;20049;-82
2021/05/29 12:17:34;;;;;;;0.30;0.08;;;27.50;22.40;;;;;;5043352;28;20072;-82
2021/05/29 12:20:03;;;;;;;0.10;0.08;;;27.20;23.20;;;;;;5039464;28;20429;-82
2021/05/29 12:23:03;;;;;;;;;;;;;;;;;;;;;
2021/05/29 12:25:46;;;;;;;0.20;0.20;;;27.70;33.30;;;;;;5032940;28;20031;-82
2021/05/29 12:28:25;;;;;;;0.35;0.35;;;28.00;21.40;;;;;;5036183;28;20022;-82
2021/05/29 12:31:04;;;;;;;1.25;0.57;;;27.90;21.90;;;;;;5030340;28;20405;-83
2021/05/29 12:33:30;;;;;;;0.00;0.00;;;27.80;22.20;;;;;;5026090;28;20237;-82
2021/05/29 12:36:14;;;;;;;0.00;0.00;;;27.80;31.40;;;;;;5024051;28;20041;-82
2021/05/29 12:39:00;;;;;;;0.22;0.20;;;27.90;22.10;;;;;;5020739;28;20497;-82
2021/05/29 12:41:37;;;;;;;0.75;0.43;;;27.90;23.80;;;;;;5024373;28;20022;-82
2021/05/29 12:44:28;;;;;;;0.00;0.00;;;27.90;22.30;;;;;;5022425;28;20048;-82
2021/05/29 12:46:55;;;;;;;0.00;0.00;;;28.00;21.60;;;;;;5020299;28;20122;-82
2021/05/29 12:49:27;;;;;;;0.10;0.10;;;28.00;21.30;;;;;;5019687;28;20029;-82
2021/05/29 12:51:56;;;;;;;0.22;0.00;;;27.90;22.00;;;;;;5025699;28;20445;-82
2021/05/29 12:54:22;;;;;;;0.28;0.10;;;28.30;21.20;;;;;;5026130;28;20021;-81
2021/05/29 12:56:55;;;;;;;0.80;0.75;;;28.00;21.60;;;;;;5025434;28;20025;-81
2021/05/29 12:59:35;;;;;;;0.10;0.10;;;27.30;23.80;;;;;;5023448;28;20038;-82
2021/05/29 13:07:41;;;;;;;0.20;0.10;;;27.30;23.60;;;;;;5022821;28;20072;-81
2021/05/29 13:12:36;;;;;;;0.00;0.00;;;27.30;23.00;;;;;;5027135;28;20093;-82
2021/05/29 13:15:14;;;;;;;;;;;27.50;23.70;;;;;;5021879;28;20398;-81
2021/05/29 13:17:41;;;;;;;0.00;0.00;;;28.00;23.20;;;;;;5022165;28;19918;-82
2021/05/29 13:20:22;;;;;;;1.77;1.10;;;27.50;23.20;;;;;;5017465;28;20076;-82
2021/05/29 13:22:58;;;;;;;0.10;0.10;;;27.40;23.60;;;;;;5017064;28;20054;-82
2021/05/29 13:25:25;;;;;;;0.00;0.00;;;27.90;22.80;;;;;;5020343;28;20022;-83
2021/05/29 13:27:54;;;;;;;0.57;0.55;;;28.40;22.50;;;;;;5021923;28;20037;-82
2021/05/29 13:30:26;;;;;;;0.00;0.00;;;28.30;21.80;;;;;;5022450;28;20022;-82
2021/05/29 13:33:07;;;;;;;0.10;0.10;;;27.70;23.40;;;;;;5022454;28;20026;-84
2021/05/29 13:35:34;;;;;;;0.00;0.00;;;27.20;24.70;;;;;;5020875;28;20028;-82
2021/05/29 13:38:03;;;;;;;0.30;0.30;;;27.30;23.80;;;;;;5021861;28;20033;-83
2021/05/29 13:40:29;;;;;;;0.20;0.20;;;27.10;24.50;;;;;;5021550;28;20060;-81
2021/05/29 13:43:00;;;;;;;0.10;0.10;;;27.00;25.50;;;;;;5021051;28;20025;-80
2021/05/29 13:45:28;;;;;;;0.30;0.15;;;27.10;25.20;;;;;;5026447;28;20040;-83
2021/05/29 13:47:54;;;;;;;0.10;0.10;;;26.80;26.20;;;;;;5022037;28;20520;-83
2021/05/29 13:50:21;;;;;;;0.03;0.03;;;27.30;25.90;;;;;;5016890;28;20049;-83
2021/05/29 13:52:47;;;;;;;0.20;0.20;;;27.00;25.10;;;;;;5021133;28;20023;-84
2021/05/29 13:55:14;;;;;;;0.20;0.15;;;26.70;25.50;;;;;;5009922;28;20026;-82
2021/05/29 13:57:40;;;;;;;0.17;0.10;;;26.70;26.20;;;;;;5025734;28;20029;-83
2021/05/29 14:00:10;;;;;;;0.03;0.03;;;26.60;25.80;;;;;;5023560;28;20064;-83
2021/05/29 14:02:42;;;;;;;0.10;0.10;;;26.40;27.60;;;;;;5021286;28;20033;-84
2021/05/29 14:05:09;;;;;;;0.10;0.10;;;26.40;27.10;;;;;;5027122;28;20037;-83
2021/05/29 14:07:35;;;;;;;0.20;0.20;;;26.30;27.20;;;;;;5023378;28;20025;-85
2021/05/29 14:10:01;;;;;;;0.15;0.03;;;26.50;27.40;;;;;;5018394;28;20037;-83
2021/05/29 14:12:26;;;;;;;0.45;0.43;;;26.20;27.20;;;;;;5017845;28;20496;-83
2021/05/29 14:14:54;;;;;;;0.28;0.28;;;26.20;27.20;;;;;;5017411;28;20034;-82
2021/05/29 14:17:20;;;;;;;0.08;0.08;;;26.20;28.30;;;;;;5024503;28;20026;-83
2021/05/29 14:19:46;;;;;;;0.00;0.00;;;26.30;27.90;;;;;;5024601;28;20106;-85
2021/05/29 14:22:11;;;;;;;0.10;0.10;;;26.30;27.40;;;;;;5025016;28;20744;-84
2021/05/29 14:24:37;;;;;;;0.30;0.30;;;26.20;28.10;;;;;;5025388;28;20052;-83
2021/05/29 14:27:03;;;;;;;0.08;0.08;;;26.10;28.40;;;;;;5021106;28;20030;-83
2021/05/29 14:29:29;;;;;;;0.88;0.88;;;26.10;27.70;;;;;;5016613;28;20041;-83
2021/05/29 14:31:55;;;;;;;17.80;3.40;;;26.00;28.20;;;;;;5025122;28;20812;-83